createdAt,value
2022-09-01T00:00:01.400Z,99542.94
2022-09-01T00:02:29.110Z,99537.16
2022-09-01T00:04:59.067Z,99540.84
2022-09-01T00:07:32.712Z,99537.16
2022-09-01T00:09:59.829Z,99539.63
2022-09-01T00:12:27.258Z,99534.50
2022-09-01T00:14:54.772Z,99537.66
2022-09-01T00:17:22.138Z,99535.78
2022-09-01T00:19:49.632Z,99541.63
2022-09-01T00:22:16.730Z,99541.00
2022-09-01T00:24:43.653Z,99543.03
2022-09-01T00:27:10.596Z,99538.75
2022-09-01T00:29:37.394Z,99539.78
2022-09-01T00:32:05.276Z,99536.84
2022-09-01T00:34:31.869Z,99535.44
2022-09-01T00:36:58.609Z,99538.47
2022-09-01T00:39:25.390Z,99539.59
2022-09-01T00:41:52.347Z,99543.56
2022-09-01T00:44:24.791Z,99534.13
2022-09-01T00:46:55.181Z,99541.13
2022-09-01T00:49:39.571Z,99536.75
2022-09-01T00:52:32.989Z,99532.25
2022-09-01T00:55:04.503Z,99541.63
2022-09-01T00:57:31.209Z,99542.38
2022-09-01T01:00:07.118Z,99541.47
2022-09-01T01:02:34.062Z,99540.78
2022-09-01T01:05:00.880Z,99552.31
2022-09-01T01:07:28.292Z,99540.41
2022-09-01T01:09:55.542Z,99535.19
2022-09-01T01:12:22.313Z,99537.28
2022-09-01T01:14:52.789Z,99536.31
2022-09-01T01:17:21.330Z,99536.59
2022-09-01T01:20:15.332Z,99537.88
2022-09-01T01:23:09.236Z,99535.66
2022-09-01T01:25:45.196Z,99539.41
2022-09-01T01:28:18.741Z,99534.94
2022-09-01T01:30:56.320Z,99541.09
2022-09-01T01:33:32.618Z,99537.50
2022-09-01T01:36:00.315Z,99535.84
2022-09-01T01:38:28.218Z,99536.19
2022-09-01T01:40:56.508Z,99531.59
2022-09-01T01:43:24.120Z,99529.63
2022-09-01T01:45:53.804Z,99524.69
2022-09-01T01:48:24.723Z,99522.75
2022-09-01T01:50:53.165Z,99536.88
2022-09-01T01:53:20.787Z,99528.28
2022-09-01T01:55:50.827Z,99531.19
2022-09-01T01:58:22.658Z,99531.72
2022-09-01T02:00:51.775Z,99530.06
2022-09-01T02:03:21.978Z,99529.91
2022-09-01T02:05:50.972Z,99526.06
2022-09-01T02:08:21.225Z,99527.72
2022-09-01T02:10:50.512Z,99518.28
2022-09-01T02:13:19.525Z,99530.06
2022-09-01T02:15:53.981Z,99519.09
2022-09-01T02:18:31.221Z,99520.50
2022-09-01T02:20:59.130Z,99525.50
2022-09-01T02:23:25.827Z,99519.25
2022-09-01T02:26:15.684Z,99518.03
2022-09-01T02:28:45.549Z,99519.16
2022-09-01T02:31:12.575Z,99514.69
2022-09-01T02:33:40.837Z,99517.75
2022-09-01T02:36:14.057Z,99508.50
2022-09-01T02:38:46.584Z,99513.34
2022-09-01T02:41:14.524Z,99508.91
2022-09-01T02:43:46.322Z,99520.31
2022-09-01T02:46:15.477Z,99516.25
2022-09-01T02:48:46.122Z,99512.94
2022-09-01T02:51:15.587Z,99508.25
2022-09-01T02:53:43.903Z,99504.75
2022-09-01T02:56:15.499Z,99510.03
2022-09-01T02:58:46.376Z,99503.13
2022-09-01T03:01:19.901Z,99509.63
2022-09-01T03:03:48.007Z,99511.56
2022-09-01T03:06:18.111Z,99508.53
2022-09-01T03:08:45.637Z,99513.09
2022-09-01T03:11:13.217Z,99506.59
2022-09-01T03:13:41.544Z,99517.00
2022-09-01T03:16:09.058Z,99518.66
2022-09-01T03:18:35.778Z,99526.41
2022-09-01T03:21:03.045Z,99521.56
2022-09-01T03:23:31.553Z,99526.84
2022-09-01T03:25:58.588Z,99527.25
2022-09-01T03:28:25.901Z,99524.75
2022-09-01T03:30:54.831Z,99523.66
2022-09-01T03:33:22.847Z,99522.53
2022-09-01T03:35:50.029Z,99529.72
2022-09-01T03:38:21.151Z,99521.41
2022-09-01T03:40:49.618Z,99521.84
2022-09-01T03:43:17.343Z,99517.38
2022-09-01T03:45:45.115Z,99514.75
2022-09-01T03:48:12.902Z,99521.72
2022-09-01T03:50:44.213Z,99520.88
2022-09-01T03:53:12.300Z,99523.63
2022-09-01T03:55:39.579Z,99514.50
2022-09-01T03:58:10.179Z,99522.53
2022-09-01T04:00:41.347Z,99523.06
2022-09-01T04:03:28.382Z,99518.22
2022-09-01T04:05:55.409Z,99518.38
2022-09-01T04:08:32.285Z,99510.91
2022-09-01T04:11:14.112Z,99506.56
2022-09-01T04:13:41.849Z,99512.13
2022-09-01T04:16:37.762Z,99518.50
2022-09-01T04:19:16.223Z,99517.78
2022-09-01T04:21:47.451Z,99514.59
2022-09-01T04:24:17.079Z,99508.66
2022-09-01T04:26:48.350Z,99506.16
2022-09-01T04:29:18.832Z,99507.25
2022-09-01T04:31:52.344Z,99510.59
2022-09-01T04:34:20.637Z,99514.75
2022-09-01T04:36:49.988Z,99511.44
2022-09-01T04:39:21.358Z,99521.00
2022-09-01T04:41:49.575Z,99524.56
2022-09-01T04:44:19.411Z,99523.63
2022-09-01T04:46:48.013Z,99524.97
2022-09-01T04:49:20.022Z,99531.91
2022-09-01T04:51:53.429Z,99525.28
2022-09-01T04:54:22.839Z,99526.94
2022-09-01T04:56:52.702Z,99524.59
2022-09-01T04:59:22.327Z,99531.78
2022-09-01T05:01:51.065Z,99515.81
2022-09-01T05:04:24.766Z,99530.25
2022-09-01T05:06:56.214Z,99523.34
2022-09-01T05:09:22.916Z,99520.69
2022-09-01T05:11:50.288Z,99531.53
2022-09-01T05:14:20.081Z,99533.59
2022-09-01T05:16:46.931Z,99539.16
2022-09-01T05:19:21.025Z,99536.41
2022-09-01T05:21:48.138Z,99537.63
2022-09-01T05:24:19.210Z,99540.41
2022-09-01T05:26:47.628Z,99545.41
2022-09-01T05:29:17.957Z,99532.66
2022-09-01T05:31:49.450Z,99536.09
2022-09-01T05:34:26.511Z,99530.84
2022-09-01T05:36:57.424Z,99526.50
2022-09-01T05:39:25.282Z,99533.56
2022-09-01T05:41:54.045Z,99539.50
2022-09-01T05:44:23.136Z,99541.88
2022-09-01T05:46:50.697Z,99548.53
2022-09-01T05:49:18.977Z,99543.88
2022-09-01T05:51:50.563Z,99549.31
2022-09-01T05:54:25.758Z,99546.25
2022-09-01T05:56:54.079Z,99539.53
2022-09-01T05:59:23.165Z,99538.66
2022-09-01T06:01:50.945Z,99541.66
2022-09-01T06:04:18.063Z,99547.19
2022-09-01T06:07:07.067Z,99544.31
2022-09-01T06:09:42.657Z,99543.56
2022-09-01T06:12:18.657Z,99545.59
2022-09-01T06:14:50.982Z,99543.13
2022-09-01T06:17:19.741Z,99545.47
2022-09-01T06:19:46.888Z,99541.94
2022-09-01T06:22:13.559Z,99541.84
2022-09-01T06:24:43.838Z,99538.66
2022-09-01T06:27:12.581Z,99547.31
2022-09-01T06:29:42.753Z,99549.06
2022-09-01T06:32:10.646Z,99544.78
2022-09-01T06:34:42.751Z,99538.22
2022-09-01T06:37:11.327Z,99541.97
2022-09-01T06:39:38.572Z,99543.72
2022-09-01T06:42:06.328Z,99546.09
2022-09-01T06:44:40.733Z,99546.00
2022-09-01T06:47:09.273Z,99550.84
2022-09-01T06:49:36.625Z,99549.66
2022-09-01T06:52:04.344Z,99553.75
2022-09-01T06:54:34.838Z,99552.09
2022-09-01T06:59:54.361Z,99559.44
2022-09-01T07:02:24.436Z,99560.66
2022-09-01T07:04:54.790Z,99566.31
2022-09-01T07:10:25.135Z,99552.44
2022-09-01T07:13:10.873Z,99552.31
2022-09-01T07:18:30.986Z,99559.00
2022-09-01T07:21:35.795Z,99558.31
2022-09-01T07:24:07.588Z,99564.66
2022-09-01T07:26:34.019Z,99564.28
2022-09-01T07:29:04.351Z,99562.81
2022-09-01T07:34:41.957Z,99563.47
2022-09-01T07:45:47.242Z,99557.34
2022-09-01T07:51:35.022Z,99555.28
2022-09-01T07:53:54.557Z,99559.13
2022-09-01T07:56:23.782Z,99556.94
2022-09-01T07:58:51.926Z,99556.56
2022-09-01T08:01:24.404Z,99557.69
2022-09-01T08:03:54.343Z,99561.75
2022-09-01T08:06:22.792Z,99558.41
2022-09-01T08:08:50.969Z,99568.44
2022-09-01T08:14:18.097Z,99567.97
2022-09-01T08:16:53.155Z,99557.72
2022-09-01T08:19:20.528Z,99555.22
2022-09-01T08:21:47.223Z,99555.53
2022-09-01T08:24:14.733Z,99563.53
2022-09-01T08:26:41.923Z,99563.59
2022-09-01T08:29:09.065Z,99560.94
2022-09-01T08:31:36.235Z,99566.34
2022-09-01T08:34:05.700Z,99572.13
2022-09-01T08:36:33.364Z,99572.50
2022-09-01T08:39:00.179Z,99573.38
2022-09-01T08:41:47.360Z,99571.00
2022-09-01T08:44:50.527Z,99577.81
2022-09-01T08:47:28.806Z,99569.00
2022-09-01T08:50:00.308Z,99571.47
2022-09-01T08:52:30.215Z,99570.03
2022-09-01T08:55:01.011Z,99573.28
2022-09-01T08:57:33.307Z,99564.72
2022-09-01T09:00:00.812Z,99573.38
2022-09-01T09:03:07.694Z,99567.44
2022-09-01T09:05:58.163Z,99566.59
2022-09-01T09:08:58.122Z,99571.56
2022-09-01T09:12:22.825Z,99565.56
2022-09-01T09:15:16.183Z,99569.78
2022-09-01T09:17:56.005Z,99562.41
2022-09-01T09:20:28.238Z,99563.88
2022-09-01T09:22:55.965Z,99559.97
2022-09-01T09:25:24.594Z,99559.53
2022-09-01T09:28:01.116Z,99553.19
2022-09-01T09:30:31.643Z,99555.34
2022-09-01T09:35:57.676Z,99545.63
2022-09-01T09:38:29.486Z,99548.44
2022-09-01T09:41:20.390Z,99552.16
2022-09-01T09:44:04.936Z,99542.09
2022-09-01T09:46:46.252Z,99539.34
2022-09-01T09:49:36.310Z,99542.78
2022-09-01T09:52:16.371Z,99541.47
2022-09-01T09:55:04.915Z,99542.06
2022-09-01T09:57:32.880Z,99537.31
2022-09-01T10:00:08.948Z,99523.06
2022-09-01T10:02:37.339Z,99532.22
2022-09-01T10:05:33.576Z,99536.00
2022-09-01T10:08:02.303Z,99528.63
2022-09-01T10:10:57.351Z,99528.66
2022-09-01T10:13:26.950Z,99528.47
2022-09-01T10:15:56.929Z,99520.59
2022-09-01T10:18:29.490Z,99530.09
2022-09-01T10:21:19.178Z,99517.38
2022-09-01T10:23:47.060Z,99519.69
2022-09-01T10:26:38.432Z,99517.19
2022-09-01T10:29:50.630Z,99522.16
2022-09-01T10:32:37.031Z,99511.75
2022-09-01T10:35:06.943Z,99512.81
2022-09-01T10:37:35.390Z,99500.59
2022-09-01T10:40:36.182Z,99505.50
2022-09-01T10:43:36.155Z,99506.94
2022-09-01T10:46:50.404Z,99512.47
2022-09-01T10:49:25.160Z,99502.22
2022-09-01T10:51:56.938Z,99503.03
2022-09-01T10:55:02.161Z,99519.31
2022-09-01T10:57:46.311Z,99511.94
2022-09-01T11:01:10.653Z,99507.53
2022-09-01T11:03:56.462Z,99510.63
2022-09-01T11:09:44.104Z,99505.28
2022-09-01T11:12:29.857Z,99500.69
2022-09-01T11:15:02.738Z,99500.50
2022-09-01T11:17:38.626Z,99515.31
2022-09-01T11:20:11.401Z,99492.69
2022-09-01T11:22:57.919Z,99501.34
2022-09-01T11:25:39.693Z,99497.25
2022-09-01T11:28:18.010Z,99501.38
2022-09-01T11:31:12.314Z,99491.25
2022-09-01T11:34:10.049Z,99486.75
2022-09-01T11:36:59.883Z,99491.19
2022-09-01T11:39:48.269Z,99489.56
2022-09-01T11:42:25.441Z,99485.00
2022-09-01T11:45:21.434Z,99492.00
2022-09-01T11:47:52.573Z,99498.56
2022-09-01T11:50:24.026Z,99505.16
2022-09-01T11:53:04.689Z,99498.84
2022-09-01T11:55:43.642Z,99494.72
2022-09-01T11:58:33.857Z,99492.91
2022-09-01T12:01:20.455Z,99483.41
2022-09-01T12:03:49.766Z,99485.91
2022-09-01T12:06:27.568Z,99486.25
2022-09-01T12:08:57.898Z,99486.09
2022-09-01T12:11:31.397Z,99484.66
2022-09-01T12:14:21.790Z,99478.84
2022-09-01T12:16:59.313Z,99476.28
2022-09-01T12:19:30.484Z,99483.06
2022-09-01T12:22:01.555Z,99471.09
2022-09-01T12:24:33.161Z,99475.50
2022-09-01T12:27:01.289Z,99467.09
2022-09-01T12:29:32.137Z,99460.63
2022-09-01T12:32:00.821Z,99460.88
2022-09-01T12:34:38.983Z,99453.16
2022-09-01T12:37:25.008Z,99455.91
2022-09-01T12:39:57.804Z,99452.31
2022-09-01T12:42:30.029Z,99449.03
2022-09-01T12:45:09.952Z,99446.69
2022-09-01T12:47:50.638Z,99446.59
2022-09-01T12:50:37.920Z,99446.00
2022-09-01T12:53:15.631Z,99446.75
2022-09-01T12:55:55.540Z,99442.72
2022-09-01T12:58:27.553Z,99444.00
2022-09-01T13:01:09.214Z,99431.28
2022-09-01T13:03:44.239Z,99431.97
2022-09-01T13:06:11.293Z,99431.19
2022-09-01T13:08:38.553Z,99434.66
2022-09-01T13:11:20.185Z,99432.38
2022-09-01T13:13:47.490Z,99435.19
2022-09-01T13:16:14.904Z,99426.19
2022-09-01T13:21:32.449Z,99414.28
2022-09-01T13:23:59.223Z,99406.22
2022-09-01T13:26:26.495Z,99408.38
2022-09-01T13:28:54.211Z,99407.63
2022-09-01T13:31:29.518Z,99409.78
2022-09-01T13:34:23.086Z,99405.41
2022-09-01T13:36:48.603Z,99404.00
2022-09-01T13:39:20.445Z,99414.28
2022-09-01T13:41:47.944Z,99411.41
2022-09-01T13:44:17.258Z,99411.06
2022-09-01T13:47:00.996Z,99405.97
2022-09-01T13:52:19.331Z,99399.47
2022-09-01T13:54:46.240Z,99396.41
2022-09-01T13:57:14.951Z,99409.72
2022-09-01T13:59:42.661Z,99404.38
2022-09-01T14:02:11.143Z,99407.44
2022-09-01T14:04:38.332Z,99405.47
2022-09-01T14:07:05.309Z,99406.84
2022-09-01T14:09:32.019Z,99408.19
2022-09-01T14:11:59.752Z,99407.06
2022-09-01T14:14:26.893Z,99408.72
2022-09-01T14:16:54.594Z,99410.78
2022-09-01T14:19:21.355Z,99400.22
2022-09-01T14:21:49.788Z,99399.31
2022-09-01T14:24:20.099Z,99400.34
2022-09-01T14:26:48.696Z,99411.28
2022-09-01T14:29:15.476Z,99403.19
2022-09-01T14:31:44.341Z,99403.00
2022-09-01T14:34:12.234Z,99411.03
2022-09-01T14:36:39.472Z,99413.94
2022-09-01T14:39:06.917Z,99412.16
2022-09-01T14:41:34.126Z,99412.72
2022-09-01T14:44:03.543Z,99402.69
2022-09-01T14:46:31.304Z,99405.50
2022-09-01T14:48:58.357Z,99392.81
2022-09-01T14:52:10.411Z,99391.19
2022-09-01T14:54:16.257Z,99395.72
2022-09-01T14:57:27.226Z,99393.94
2022-09-01T14:59:30.112Z,99395.09
2022-09-01T15:01:56.914Z,99377.97
2022-09-01T15:04:23.740Z,99384.91
2022-09-01T15:06:51.363Z,99379.72
2022-09-01T15:09:19.275Z,99381.53
2022-09-01T15:11:46.534Z,99384.78
2022-09-01T15:14:14.154Z,99374.44
2022-09-01T15:16:41.811Z,99372.88
2022-09-01T15:19:14.150Z,99375.81
2022-09-01T15:21:42.876Z,99366.31
2022-09-01T15:24:11.111Z,99362.13
2022-09-01T15:26:40.912Z,99361.09
2022-09-01T15:29:10.092Z,99367.81
2022-09-01T15:31:36.859Z,99366.75
2022-09-01T15:34:04.261Z,99355.09
2022-09-01T15:36:31.931Z,99357.19
2022-09-01T15:38:59.182Z,99359.88
2022-09-01T15:41:28.750Z,99358.91
2022-09-01T15:43:56.479Z,99360.19
2022-09-01T15:46:32.447Z,99361.78
2022-09-01T15:49:00.962Z,99367.22
2022-09-01T15:51:46.443Z,99354.03
2022-09-01T15:54:15.937Z,99355.66
2022-09-01T15:56:43.176Z,99366.00
2022-09-01T15:59:10.645Z,99365.50
2022-09-01T16:01:40.445Z,99363.81
2022-09-01T16:04:09.297Z,99355.81
2022-09-01T16:06:36.334Z,99355.78
2022-09-01T16:09:05.127Z,99343.63
2022-09-01T16:11:32.022Z,99354.84
2022-09-01T16:13:59.165Z,99352.97
2022-09-01T16:16:54.266Z,99355.97
2022-09-01T16:19:34.178Z,99343.81
2022-09-01T16:22:14.721Z,99341.41
2022-09-01T16:24:46.341Z,99346.91
2022-09-01T16:27:18.966Z,99343.34
2022-09-01T16:30:11.936Z,99342.53
2022-09-01T16:32:45.089Z,99345.22
2022-09-01T16:35:12.028Z,99346.31
2022-09-01T16:38:08.984Z,99341.16
2022-09-01T16:40:51.223Z,99346.22
2022-09-01T16:43:44.739Z,99339.88
2022-09-01T16:46:30.603Z,99341.72
2022-09-01T16:49:12.508Z,99338.47
2022-09-01T16:51:53.238Z,99348.13
2022-09-01T16:55:05.370Z,99351.44
2022-09-01T16:58:00.796Z,99346.31
2022-09-01T17:00:38.729Z,99343.41
2022-09-01T17:03:19.143Z,99339.31
2022-09-01T17:05:58.096Z,99344.88
2022-09-01T17:08:31.136Z,99349.38
2022-09-01T17:11:18.215Z,99343.44
2022-09-01T17:13:49.956Z,99347.53
2022-09-01T17:16:30.043Z,99351.66
2022-09-01T17:19:02.198Z,99349.97
2022-09-01T17:21:37.197Z,99346.69
2022-09-01T17:24:30.361Z,99348.78
2022-09-01T17:27:03.689Z,99353.69
2022-09-01T17:29:35.840Z,99341.88
2022-09-01T17:32:48.356Z,99354.66
2022-09-01T17:35:28.376Z,99364.72
2022-09-01T17:38:40.452Z,99364.25
2022-09-01T17:41:39.374Z,99355.59
2022-09-01T17:44:35.760Z,99362.19
2022-09-01T17:47:27.184Z,99360.56
2022-09-01T17:50:41.688Z,99357.22
2022-09-01T17:53:24.205Z,99361.50
2022-09-01T17:59:19.973Z,99356.31
2022-09-01T18:02:13.154Z,99357.75
2022-09-01T18:04:49.870Z,99354.66
2022-09-01T18:08:01.431Z,99361.28
2022-09-01T18:10:34.414Z,99352.47
2022-09-01T18:13:05.356Z,99352.66
2022-09-01T18:15:54.453Z,99360.25
2022-09-01T18:18:46.060Z,99360.94
2022-09-01T18:21:49.430Z,99359.28
2022-09-01T18:24:21.192Z,99360.69
2022-09-01T18:26:50.605Z,99365.00
2022-09-01T18:29:17.831Z,99374.38
2022-09-01T18:32:21.449Z,99370.75
2022-09-01T18:35:01.605Z,99370.22
2022-09-01T18:38:15.260Z,99373.66
2022-09-01T18:40:56.399Z,99381.16
2022-09-01T18:43:38.986Z,99374.50
2022-09-01T18:46:53.651Z,99384.81
2022-09-01T18:49:28.486Z,99380.25
2022-09-01T18:52:06.813Z,99378.28
2022-09-01T18:54:38.792Z,99377.00
2022-09-01T18:57:08.022Z,99379.56
2022-09-01T18:59:39.222Z,99383.84
2022-09-01T19:02:47.603Z,99376.81
2022-09-01T19:05:53.647Z,99379.56
2022-09-01T19:08:49.070Z,99382.88
2022-09-01T19:11:55.205Z,99379.03
2022-09-01T19:14:43.598Z,99375.56
2022-09-01T19:17:39.232Z,99383.13
2022-09-01T19:20:19.069Z,99384.22
2022-09-01T19:23:32.985Z,99386.31
2022-09-01T19:26:07.125Z,99390.63
2022-09-01T19:29:06.741Z,99379.72
2022-09-01T19:31:39.353Z,99392.41
2022-09-01T19:34:27.192Z,99392.13
2022-09-01T19:36:57.287Z,99398.53
2022-09-01T19:39:28.124Z,99404.94
2022-09-01T19:42:13.708Z,99401.47
2022-09-01T19:51:45.181Z,99410.63
2022-09-01T19:54:21.955Z,99417.03
2022-09-01T19:57:23.094Z,99408.78
2022-09-01T20:00:04.256Z,99402.72
2022-09-01T20:02:35.542Z,99409.59
2022-09-01T20:05:22.569Z,99412.28
2022-09-01T20:07:56.602Z,99412.59
2022-09-01T20:10:39.096Z,99407.31
2022-09-01T20:13:34.911Z,99410.69
2022-09-01T20:16:32.586Z,99410.63
2022-09-01T20:19:04.261Z,99401.56
2022-09-01T20:21:31.722Z,99398.50
2022-09-01T20:24:05.757Z,99405.56
2022-09-01T20:26:41.714Z,99405.59
2022-09-01T20:29:43.313Z,99400.50
2022-09-01T20:32:20.574Z,99401.91
2022-09-01T20:34:54.622Z,99392.28
2022-09-01T20:37:27.189Z,99399.31
2022-09-01T20:40:17.417Z,99407.69
2022-09-01T20:43:22.671Z,99405.41
2022-09-01T20:45:49.774Z,99406.75
2022-09-01T20:48:22.026Z,99406.50
2022-09-01T20:51:09.352Z,99412.06
2022-09-01T20:53:54.960Z,99405.72
2022-09-01T20:56:30.074Z,99412.31
2022-09-01T20:59:21.169Z,99408.25
2022-09-01T21:02:33.297Z,99411.66
2022-09-01T21:06:04.451Z,99414.56
2022-09-01T21:08:43.794Z,99412.91
2022-09-01T21:11:22.840Z,99418.19
2022-09-01T21:14:23.601Z,99420.56
2022-09-01T21:17:40.325Z,99415.28
2022-09-01T21:20:48.581Z,99412.00
2022-09-01T21:23:16.715Z,99407.00
2022-09-01T21:25:44.438Z,99416.94
2022-09-01T21:28:18.701Z,99418.69
2022-09-01T21:30:52.153Z,99418.22
2022-09-01T21:33:18.988Z,99412.44
2022-09-01T21:35:45.926Z,99416.09
2022-09-01T21:38:12.556Z,99416.03
2022-09-01T21:40:39.449Z,99410.41
2022-09-01T21:43:15.337Z,99417.09
2022-09-01T21:45:42.244Z,99408.34
2022-09-01T21:48:09.158Z,99417.06
2022-09-01T21:50:36.094Z,99407.13
2022-09-01T21:53:02.753Z,99415.41
2022-09-01T21:55:30.117Z,99418.88
2022-09-01T21:57:56.771Z,99409.09
2022-09-01T22:00:27.150Z,99416.34
2022-09-01T22:02:54.950Z,99408.44
2022-09-01T22:05:22.211Z,99415.97
2022-09-01T22:07:48.887Z,99414.50
2022-09-01T22:10:18.128Z,99409.50
2022-09-01T22:12:46.402Z,99409.47
2022-09-01T22:15:16.786Z,99410.00
2022-09-01T22:17:43.564Z,99409.31
2022-09-01T22:20:12.337Z,99410.19
2022-09-01T22:22:39.715Z,99408.88
2022-09-01T22:25:08.935Z,99407.03
2022-09-01T22:27:35.715Z,99410.72
2022-09-01T22:30:04.605Z,99404.72
2022-09-01T22:32:33.973Z,99405.25
2022-09-01T22:35:03.339Z,99402.91
2022-09-01T22:37:30.044Z,99395.31
2022-09-01T22:39:56.673Z,99403.28
2022-09-01T22:42:23.377Z,99395.63
2022-09-01T22:44:50.021Z,99396.13
2022-09-01T22:47:16.712Z,99393.78
2022-09-01T22:49:44.037Z,99394.63
2022-09-01T22:52:10.614Z,99396.63
2022-09-01T22:54:38.448Z,99389.34
2022-09-01T22:57:05.259Z,99391.31
2022-09-01T22:59:31.980Z,99382.69
2022-09-01T23:02:01.372Z,99386.53
2022-09-01T23:04:28.277Z,99386.03
2022-09-01T23:06:54.937Z,99385.53
2022-09-01T23:09:21.849Z,99387.69
2022-09-01T23:11:48.738Z,99385.03
2022-09-01T23:14:15.555Z,99376.75
2022-09-01T23:16:42.394Z,99378.75
2022-09-01T23:19:09.169Z,99381.06
2022-09-01T23:21:37.742Z,99382.41
2022-09-01T23:24:05.152Z,99386.19
2022-09-01T23:26:32.238Z,99385.38
2022-09-01T23:28:59.616Z,99381.56
2022-09-01T23:31:28.990Z,99379.72
2022-09-01T23:33:56.200Z,99369.31
2022-09-01T23:36:25.152Z,99375.78
2022-09-01T23:38:52.671Z,99374.78
2022-09-01T23:41:23.535Z,99369.50
2022-09-01T23:43:51.860Z,99369.13
2022-09-01T23:46:27.639Z,99375.56
2022-09-01T23:48:54.767Z,99362.50
2022-09-01T23:51:23.084Z,99374.75
2022-09-01T23:53:50.093Z,99362.50
2022-09-01T23:56:19.556Z,99370.34
2022-09-01T23:58:46.783Z,99369.94
